Time;durP1;ratioP1;P1;durP2;ratioP2;P2;SDS_P1;SDS_P2;PMS_P1;PMS_P2;Temp;Humidity;BMP_temperature;BMP_pressure;BME280_temperature;BME280_humidity;BME280_pressure;Samples;Min_cycle;Max_cycle;Signal;HPM_P1;HPM_P2
2023/04/23 00:02:01;;;;;;;;;;;13.00;65.30;;;;;;4996806;28;84255;-39
2023/04/23 00:04:27;;;;;;;;;;;13.00;65.20;;;;;;4996884;28;81898;-39
2023/04/23 00:06:53;;;;;;;;;;;12.90;65.30;;;;;;4998184;28;83077;-39
2023/04/23 00:09:21;;;;;;;;;;;12.90;65.10;;;;;;4995102;28;84948;-39
2023/04/23 00:11:47;;;;;;;;;;;12.90;65.20;;;;;;5001629;28;82051;-39
2023/04/23 00:14:12;;;;;;;;;;;12.90;65.30;;;;;;4996767;28;82292;-39
2023/04/23 00:16:38;;;;;;;;;;;12.90;65.20;;;;;;4997227;28;82113;-39
2023/04/23 00:19:04;;;;;;;;;;;12.90;65.30;;;;;;4997972;28;82702;-39
2023/04/23 00:21:30;;;;;;;;;;;12.90;65.10;;;;;;4995151;28;85552;-39
2023/04/23 00:23:56;;;;;;;;;;;12.90;65.10;;;;;;4998654;28;81972;-39
2023/04/23 00:26:21;;;;;;;;;;;12.90;65.10;;;;;;4995940;28;84222;-39
2023/04/23 00:28:47;;;;;;;;;;;12.90;65.10;;;;;;4997628;28;83054;-39
2023/04/23 00:31:12;;;;;;;;;;;12.90;65.00;;;;;;4996781;28;82546;-39
2023/04/23 00:33:38;;;;;;;;;;;12.90;65.10;;;;;;4999352;28;82472;-39
2023/04/23 00:36:04;;;;;;;;;;;12.80;65.00;;;;;;4997884;28;81907;-40
2023/04/23 00:38:29;;;;;;;;;;;12.80;65.00;;;;;;4995623;28;84232;-39
2023/04/23 00:40:55;;;;;;;;;;;12.80;65.00;;;;;;4995093;28;85054;-39
2023/04/23 00:43:20;;;;;;;;;;;12.80;65.00;;;;;;4998207;28;82321;-39
2023/04/23 00:45:46;;;;;;;;;;;12.80;65.10;;;;;;4996064;28;82848;-39
2023/04/23 00:48:12;;;;;;;;;;;12.80;65.10;;;;;;4995948;28;84458;-39
2023/04/23 00:50:37;;;;;;;;;;;12.70;65.00;;;;;;4997417;28;82773;-39
2023/04/23 00:53:03;;;;;;;;;;;12.70;65.10;;;;;;4995108;28;83831;-39
2023/04/23 00:55:29;;;;;;;;;;;12.70;65.10;;;;;;5000765;28;84083;-39
2023/04/23 00:57:54;;;;;;;;;;;12.70;65.00;;;;;;4995417;28;83758;-39
2023/04/23 01:00:20;;;;;;;;;;;12.70;64.90;;;;;;4997214;28;83503;-39
2023/04/23 01:02:46;;;;;;;;;;;12.70;65.00;;;;;;4996632;28;81591;-39
2023/04/23 01:05:13;;;;;;;;;;;12.60;64.90;;;;;;4995700;28;82910;-39
2023/04/23 01:07:39;;;;;;;;;;;12.60;65.10;;;;;;4997493;28;83456;-39
2023/04/23 01:10:05;;;;;;;;;;;12.60;64.90;;;;;;4994123;28;82927;-39
2023/04/23 01:12:31;;;;;;;;;;;12.60;65.40;;;;;;4997586;28;84948;-39
2023/04/23 01:14:57;;;;;;;;;;;12.60;64.80;;;;;;4994751;28;84476;-39
2023/04/23 01:17:22;;;;;;;;;;;12.60;65.00;;;;;;4999103;28;82099;-39
2023/04/23 01:19:48;;;;;;;;;;;12.60;64.90;;;;;;4996722;28;83927;-39
2023/04/23 01:22:14;;;;;;;;;;;12.50;64.90;;;;;;4994951;28;82294;-39
2023/04/23 01:24:41;;;;;;;;;;;12.50;64.90;;;;;;4997740;28;83959;-39
2023/04/23 01:27:07;;;;;;;;;;;12.50;64.80;;;;;;4995212;28;83725;-39
2023/04/23 01:29:33;;;;;;;;;;;12.50;64.80;;;;;;4996521;28;82098;-39
2023/04/23 01:31:59;;;;;;;;;;;12.60;65.00;;;;;;4996465;28;82595;-39
2023/04/23 01:34:24;;;;;;;;;;;12.50;65.00;;;;;;4994346;28;85019;-39
2023/04/23 01:36:51;;;;;;;;;;;12.50;64.90;;;;;;4997115;28;82440;-39
2023/04/23 01:39:16;;;;;;;;;;;12.50;65.00;;;;;;4996595;28;84343;-39
2023/04/23 01:41:42;;;;;;;;;;;12.40;64.80;;;;;;4996587;28;82138;-39
2023/04/23 01:44:07;;;;;;;;;;;12.40;64.90;;;;;;4995494;28;82576;-39
2023/04/23 01:46:33;;;;;;;;;;;12.40;64.90;;;;;;4995548;28;84579;-39
2023/04/23 01:48:58;;;;;;;;;;;12.40;64.90;;;;;;4996652;28;82114;-39
2023/04/23 01:51:24;;;;;;;;;;;12.40;65.00;;;;;;4994889;28;84159;-39
2023/04/23 01:53:50;;;;;;;;;;;12.40;64.80;;;;;;4996895;28;83413;-39
2023/04/23 01:56:18;;;;;;;;;;;12.40;65.00;;;;;;4994413;28;82062;-39
2023/04/23 01:58:43;;;;;;;;;;;12.40;64.90;;;;;;4997512;28;83841;-39
2023/04/23 02:01:09;;;;;;;;;;;12.30;65.00;;;;;;4995668;28;82143;-39
2023/04/23 02:03:34;;;;;;;;;;;12.30;64.90;;;;;;4994662;28;83813;-39
2023/04/23 02:06:00;;;;;;;;;;;12.30;65.00;;;;;;4996456;28;84692;-39
2023/04/23 02:08:26;;;;;;;;;;;12.30;64.90;;;;;;4993772;28;82104;-39
2023/04/23 02:10:52;;;;;;;;;;;12.30;65.50;;;;;;4996733;28;84023;-39
2023/04/23 02:13:17;;;;;;;;;;;12.20;64.90;;;;;;4994635;28;83167;-39
2023/04/23 02:15:43;;;;;;;;;;;12.20;64.90;;;;;;4995704;28;81788;-39
2023/04/23 02:18:09;;;;;;;;;;;12.20;65.00;;;;;;4995500;28;83171;-39
2023/04/23 02:20:39;;;;;;;;;;;12.20;64.80;;;;;;4996484;28;83745;-39
2023/04/23 02:23:05;;;;;;;;;;;12.20;64.90;;;;;;4993219;28;83767;-39
2023/04/23 02:25:32;;;;;;;;;;;12.20;64.90;;;;;;4995732;28;84223;-39
2023/04/23 02:27:58;;;;;;;;;;;12.20;64.90;;;;;;4995086;28;82077;-39
2023/04/23 02:30:24;;;;;;;;;;;12.10;64.90;;;;;;4994645;28;83671;-39
2023/04/23 02:32:50;;;;;;;;;;;12.10;64.90;;;;;;4996046;28;84599;-39
2023/04/23 02:35:15;;;;;;;;;;;12.10;64.90;;;;;;4993435;28;82340;-39
2023/04/23 02:37:41;;;;;;;;;;;12.10;64.90;;;;;;4996055;28;84239;-39
2023/04/23 02:40:07;;;;;;;;;;;12.10;64.80;;;;;;4994641;28;83289;-39
2023/04/23 02:42:32;;;;;;;;;;;12.10;64.90;;;;;;4997404;28;82040;-39
2023/04/23 02:44:58;;;;;;;;;;;12.10;64.90;;;;;;4995136;28;84977;-39
2023/04/23 02:47:42;;;;;;;;;;;12.10;65.00;;;;;;4992974;28;83100;-39
2023/04/23 02:50:08;;;;;;;;;;;12.00;64.90;;;;;;4995020;28;85183;-39
2023/04/23 02:52:33;;;;;;;;;;;12.00;64.90;;;;;;4993687;28;84306;-39
2023/04/23 02:55:00;;;;;;;;;;;12.00;64.80;;;;;;4996699;28;82102;-39
2023/04/23 02:57:26;;;;;;;;;;;12.00;65.00;;;;;;4993312;28;83987;-39
2023/04/23 02:59:51;;;;;;;;;;;12.00;65.00;;;;;;4995481;28;83181;-39
2023/04/23 03:02:17;;;;;;;;;;;12.00;65.00;;;;;;4994203;28;82443;-39
2023/04/23 03:04:42;;;;;;;;;;;12.00;64.90;;;;;;4997174;28;84187;-39
2023/04/23 03:07:08;;;;;;;;;;;11.90;64.80;;;;;;4995380;28;82053;-39
2023/04/23 03:09:33;;;;;;;;;;;11.90;64.80;;;;;;4993394;28;83834;-39
2023/04/23 03:11:59;;;;;;;;;;;11.90;64.90;;;;;;4995441;28;83969;-39
2023/04/23 03:14:25;;;;;;;;;;;11.90;64.90;;;;;;4992993;28;82605;-39
2023/04/23 03:16:50;;;;;;;;;;;11.90;64.90;;;;;;4995206;28;83887;-39
2023/04/23 03:19:16;;;;;;;;;;;11.90;64.90;;;;;;4994022;28;84680;-39
2023/04/23 03:21:41;;;;;;;;;;;11.80;64.90;;;;;;4993756;28;82004;-39
2023/04/23 03:24:07;;;;;;;;;;;11.80;64.80;;;;;;4995797;28;83775;-39
2023/04/23 03:26:33;;;;;;;;;;;11.80;64.70;;;;;;4995501;28;83005;-39
2023/04/23 03:28:59;;;;;;;;;;;11.80;64.70;;;;;;4993470;28;84901;-39
2023/04/23 03:31:24;;;;;;;;;;;11.80;64.70;;;;;;4995138;28;83096;-39
2023/04/23 03:33:50;;;;;;;;;;;11.80;64.70;;;;;;4993885;28;82515;-39
2023/04/23 03:36:15;;;;;;;;;;;11.80;64.90;;;;;;4993477;28;83129;-39
2023/04/23 03:38:41;;;;;;;;;;;11.70;64.80;;;;;;4995150;28;84583;-39
2023/04/23 03:41:06;;;;;;;;;;;11.70;64.80;;;;;;4992622;28;82104;-39
2023/04/23 03:43:32;;;;;;;;;;;11.70;64.70;;;;;;4995649;28;83743;-39
2023/04/23 03:45:57;;;;;;;;;;;11.70;64.80;;;;;;4992955;28;84449;-39
2023/04/23 03:48:23;;;;;;;;;;;11.70;64.80;;;;;;4997524;28;82300;-39
2023/04/23 03:50:48;;;;;;;;;;;11.70;64.80;;;;;;4993936;28;84021;-39
2023/04/23 03:53:14;;;;;;;;;;;11.70;64.80;;;;;;4994129;28;81308;-39
2023/04/23 03:55:58;;;;;;;;;;;11.60;64.70;;;;;;4995582;28;82028;-39
2023/04/23 03:58:23;;;;;;;;;;;11.60;65.20;;;;;;4994637;28;82741;-39
2023/04/23 04:00:49;;;;;;;;;;;11.60;64.90;;;;;;4992485;28;83331;-39
2023/04/23 04:03:15;;;;;;;;;;;11.60;64.80;;;;;;4995484;28;84968;-39
2023/04/23 04:05:40;;;;;;;;;;;11.60;64.80;;;;;;4992258;28;83376;-39
2023/04/23 04:08:06;;;;;;;;;;;11.60;64.90;;;;;;4997780;28;82108;-39
2023/04/23 04:10:31;;;;;;;;;;;11.60;64.80;;;;;;4993258;28;84101;-39
2023/04/23 04:12:57;;;;;;;;;;;11.60;64.80;;;;;;4993603;28;82067;-39
2023/04/23 04:15:22;;;;;;;;;;;11.60;64.80;;;;;;4993895;28;84213;-39
2023/04/23 04:17:48;;;;;;;;;;;11.50;64.60;;;;;;4992660;28;84256;-39
2023/04/23 04:20:14;;;;;;;;;;;11.50;64.60;;;;;;4995358;28;82224;-39
2023/04/23 04:22:39;;;;;;;;;;;11.50;64.80;;;;;;4993536;28;83532;-39
2023/04/23 04:25:05;;;;;;;;;;;11.50;64.80;;;;;;4996757;28;85240;-39
2023/04/23 04:27:33;;;;;;;;;;;11.50;64.70;;;;;;4997097;28;82438;-39
2023/04/23 04:30:00;;;;;;;;;;;11.50;64.90;;;;;;4998864;28;83883;-39
2023/04/23 04:32:26;;;;;;;;;;;11.50;64.80;;;;;;4998344;28;82178;-39
2023/04/23 04:34:51;;;;;;;;;;;11.50;64.70;;;;;;4995247;28;83494;-39
2023/04/23 04:37:17;;;;;;;;;;;11.40;64.80;;;;;;4997761;28;84591;-39
2023/04/23 04:39:43;;;;;;;;;;;11.40;65.00;;;;;;4996733;28;82023;-39
2023/04/23 04:42:09;;;;;;;;;;;11.40;65.00;;;;;;4996976;28;82912;-39
2023/04/23 04:44:36;;;;;;;;;;;11.40;65.10;;;;;;4997366;28;82821;-39
2023/04/23 04:47:01;;;;;;;;;;;11.40;64.90;;;;;;4994623;28;82124;-39
2023/04/23 04:49:27;;;;;;;;;;;11.40;64.90;;;;;;4994863;28;83593;-39
2023/04/23 04:51:53;;;;;;;;;;;11.40;64.90;;;;;;5000490;28;83020;-39
2023/04/23 04:54:18;;;;;;;;;;;11.30;64.90;;;;;;4996427;28;83648;-39
2023/04/23 04:56:44;;;;;;;;;;;11.40;64.90;;;;;;4996285;28;83354;-39
2023/04/23 04:59:09;;;;;;;;;;;11.40;64.90;;;;;;4997438;28;82581;-39
2023/04/23 05:01:35;;;;;;;;;;;11.40;65.00;;;;;;4995240;28;82589;-39
2023/04/23 05:04:01;;;;;;;;;;;11.30;65.40;;;;;;4998069;28;84279;-39
2023/04/23 05:06:27;;;;;;;;;;;11.30;64.80;;;;;;4995745;28;81559;-39
2023/04/23 05:08:53;;;;;;;;;;;11.30;64.80;;;;;;4996973;28;83330;-39
2023/04/23 05:11:18;;;;;;;;;;;11.30;65.00;;;;;;4996497;28;83096;-39
2023/04/23 05:13:44;;;;;;;;;;;11.30;64.80;;;;;;4998046;28;82936;-39
2023/04/23 05:16:10;;;;;;;;;;;11.30;64.70;;;;;;4996999;28;84747;-39
2023/04/23 05:18:37;;;;;;;;;;;11.30;65.00;;;;;;4994621;28;82184;-39
2023/04/23 05:21:02;;;;;;;;;;;11.30;64.90;;;;;;4997459;28;83735;-39
2023/04/23 05:23:28;;;;;;;;;;;11.30;65.00;;;;;;4995476;28;83150;-39
2023/04/23 05:25:55;;;;;;;;;;;11.30;65.00;;;;;;4996690;28;82089;-39
2023/04/23 05:28:21;;;;;;;;;;;11.30;65.10;;;;;;4997006;28;84063;-39
2023/04/23 05:30:46;;;;;;;;;;;11.20;64.90;;;;;;4995122;28;82453;-39
2023/04/23 05:33:12;;;;;;;;;;;11.30;65.00;;;;;;4997935;28;82190;-39
2023/04/23 05:35:37;;;;;;;;;;;11.30;65.00;;;;;;4997288;28;84253;-39
2023/04/23 05:38:05;;;;;;;;;;;11.30;65.00;;;;;;4996282;28;83015;-39
2023/04/23 05:40:30;;;;;;;;;;;11.30;65.10;;;;;;4995937;28;84915;-39
2023/04/23 05:42:58;;;;;;;;;;;11.30;64.90;;;;;;4994944;28;84934;-39
2023/04/23 05:45:24;;;;;;;;;;;11.20;65.00;;;;;;4997681;28;82024;-40
2023/04/23 05:47:50;;;;;;;;;;;11.30;65.20;;;;;;4994383;28;83822;-39
2023/04/23 05:50:16;;;;;;;;;;;11.30;65.10;;;;;;4996230;28;84576;-40
2023/04/23 05:52:41;;;;;;;;;;;11.30;65.20;;;;;;4995462;28;82316;-40
2023/04/23 05:55:08;;;;;;;;;;;11.20;65.20;;;;;;4998219;28;83116;-40
2023/04/23 05:57:35;;;;;;;;;;;11.30;65.20;;;;;;4996752;28;82391;-39
2023/04/23 06:00:00;;;;;;;;;;;11.30;65.30;;;;;;4993820;28;83888;-39
2023/04/23 06:02:28;;;;;;;;;;;11.20;65.20;;;;;;4996353;28;85966;-39
2023/04/23 06:04:53;;;;;;;;;;;11.20;65.30;;;;;;4993444;28;82096;-39
2023/04/23 06:07:19;;;;;;;;;;;11.30;65.30;;;;;;4995326;28;83190;-39
2023/04/23 06:09:45;;;;;;;;;;;11.30;65.30;;;;;;4995824;28;84567;-39
2023/04/23 06:12:10;;;;;;;;;;;11.30;65.30;;;;;;4994196;28;81941;-39
2023/04/23 06:14:36;;;;;;;;;;;11.20;65.40;;;;;;4996867;28;83302;-39
2023/04/23 06:17:01;;;;;;;;;;;11.20;65.30;;;;;;4996821;28;84280;-39
2023/04/23 06:19:27;;;;;;;;;;;11.20;65.40;;;;;;4996855;28;81386;-39
2023/04/23 06:21:52;;;;;;;;;;;11.20;65.40;;;;;;4994795;28;84148;-39
2023/04/23 06:24:18;;;;;;;;;;;11.30;65.40;;;;;;4995370;28;82062;-39
2023/04/23 06:26:43;;;;;;;;;;;11.20;65.30;;;;;;4995712;28;83819;-39
2023/04/23 06:29:09;;;;;;;;;;;11.20;65.50;;;;;;4993523;28;83802;-39
2023/04/23 06:31:35;;;;;;;;;;;11.20;65.50;;;;;;4996577;28;82147;-39
2023/04/23 06:34:00;;;;;;;;;;;11.20;65.50;;;;;;4994096;28;83894;-39
2023/04/23 06:36:26;;;;;;;;;;;11.20;65.60;;;;;;4995907;28;82734;-39
2023/04/23 06:38:51;;;;;;;;;;;11.20;65.70;;;;;;4998297;28;82079;-39
2023/04/23 06:41:17;;;;;;;;;;;11.20;65.70;;;;;;4994267;28;84700;-39
2023/04/23 06:43:42;;;;;;;;;;;11.20;65.70;;;;;;4996907;28;81150;-39
2023/04/23 06:46:08;;;;;;;;;;;11.20;65.70;;;;;;4993067;28;81989;-39
2023/04/23 06:48:34;;;;;;;;;;;11.20;65.80;;;;;;4996461;28;84473;-39
2023/04/23 06:50:59;;;;;;;;;;;11.20;65.80;;;;;;4993582;28;82988;-39
2023/04/23 06:53:25;;;;;;;;;;;11.20;65.80;;;;;;4995490;28;85008;-39
2023/04/23 06:55:50;;;;;;;;;;;11.20;65.90;;;;;;4994891;28;84655;-39
2023/04/23 06:58:16;;;;;;;;;;;11.20;65.80;;;;;;4993636;28;82048;-39
2023/04/23 07:00:42;;;;;;;;;;;11.20;65.80;;;;;;4995712;28;84138;-39
2023/04/23 07:03:08;;;;;;;;;;;11.20;66.00;;;;;;4993050;28;82056;-39
2023/04/23 07:05:33;;;;;;;;;;;11.20;66.00;;;;;;4995791;28;83726;-39
2023/04/23 07:07:59;;;;;;;;;;;11.20;66.10;;;;;;4994591;28;83747;-39
2023/04/23 07:10:24;;;;;;;;;;;11.20;66.00;;;;;;4994436;28;82115;-39
2023/04/23 07:12:50;;;;;;;;;;;11.20;66.00;;;;;;4995626;28;82122;-40
2023/04/23 07:15:15;;;;;;;;;;;11.20;65.90;;;;;;4992142;28;84497;-39
2023/04/23 07:17:41;;;;;;;;;;;11.20;65.90;;;;;;4996340;28;82155;-39
2023/04/23 07:20:07;;;;;;;;;;;11.20;65.90;;;;;;4993198;28;83125;-39
2023/04/23 07:22:33;;;;;;;;;;;11.20;66.00;;;;;;4998182;28;82432;-40
2023/04/23 07:24:58;;;;;;;;;;;11.30;65.90;;;;;;4994608;28;83914;-39
2023/04/23 07:27:24;;;;;;;;;;;11.30;65.90;;;;;;4994214;28;84515;-39
2023/04/23 07:29:49;;;;;;;;;;;11.30;65.90;;;;;;4996137;28;82571;-39
2023/04/23 07:32:15;;;;;;;;;;;11.30;65.90;;;;;;4997155;28;82554;-39
2023/04/23 07:34:40;;;;;;;;;;;11.30;66.00;;;;;;4992874;28;84600;-39
2023/04/23 07:37:06;;;;;;;;;;;11.20;66.10;;;;;;4995831;28;82160;-39
2023/04/23 07:39:32;;;;;;;;;;;11.30;66.20;;;;;;4993513;28;84007;-39
2023/04/23 07:41:57;;;;;;;;;;;11.30;66.10;;;;;;4994357;28;83174;-39
2023/04/23 07:44:22;;;;;;;;;;;11.30;66.10;;;;;;4998174;28;82165;-39
2023/04/23 07:46:49;;;;;;;;;;;11.30;66.10;;;;;;4992839;28;84234;-39
2023/04/23 07:49:15;;;;;;;;;;;11.30;66.10;;;;;;4995875;28;82218;-40
2023/04/23 07:51:40;;;;;;;;;;;11.30;66.10;;;;;;4993319;28;83165;-39
2023/04/23 07:54:06;;;;;;;;;;;11.30;66.10;;;;;;4994748;28;83593;-39
2023/04/23 07:56:32;;;;;;;;;;;11.30;66.20;;;;;;4994942;28;81766;-39
2023/04/23 07:58:58;;;;;;;;;;;11.30;66.30;;;;;;4996392;28;83345;-39
2023/04/23 08:01:24;;;;;;;;;;;11.30;66.20;;;;;;4998658;28;84573;-39
2023/04/23 08:03:49;;;;;;;;;;;11.30;66.30;;;;;;4997833;28;82919;-39
2023/04/23 08:06:15;;;;;;;;;;;11.30;66.20;;;;;;4998534;28;84492;-39
2023/04/23 08:08:41;;;;;;;;;;;11.30;66.20;;;;;;4996742;28;82122;-39
2023/04/23 08:11:06;;;;;;;;;;;11.40;66.30;;;;;;4997820;28;81952;-39
2023/04/23 08:13:32;;;;;;;;;;;11.40;66.30;;;;;;4998217;28;84487;-39
2023/04/23 08:15:57;;;;;;;;;;;11.40;66.30;;;;;;4995493;28;82144;-39
2023/04/23 08:18:23;;;;;;;;;;;11.40;66.40;;;;;;4998880;28;83684;-39
2023/04/23 08:20:49;;;;;;;;;;;11.40;66.30;;;;;;4995541;28;84464;-39
2023/04/23 08:23:15;;;;;;;;;;;11.40;66.20;;;;;;4996575;28;82099;-39
2023/04/23 08:25:40;;;;;;;;;;;11.40;66.30;;;;;;5000183;28;82435;-39
2023/04/23 08:28:06;;;;;;;;;;;11.40;66.20;;;;;;4997033;28;83022;-39
2023/04/23 08:30:31;;;;;;;;;;;11.40;66.30;;;;;;4996037;28;84769;-39
2023/04/23 08:32:57;;;;;;;;;;;11.40;66.20;;;;;;4998365;28;84170;-39
2023/04/23 08:35:22;;;;;;;;;;;11.40;66.20;;;;;;4995442;28;81953;-40
2023/04/23 08:37:48;;;;;;;;;;;11.50;66.20;;;;;;4998470;28;83810;-39
2023/04/23 08:40:14;;;;;;;;;;;11.50;66.10;;;;;;4996293;28;83271;-39
2023/04/23 08:42:47;;;;;;;;;;;11.50;66.20;;;;;;4996948;28;82674;-39
2023/04/23 08:45:13;;;;;;;;;;;11.50;66.20;;;;;;4999547;28;81207;-39
2023/04/23 08:47:43;;;;;;;;;;;11.50;66.20;;;;;;4998317;28;82901;-39
2023/04/23 08:50:16;;;;;;;;;;;11.50;66.20;;;;;;4997206;28;83903;-39
2023/04/23 08:52:45;;;;;;;;;;;11.50;66.20;;;;;;4997526;28;85252;-39
2023/04/23 08:55:13;;;;;;;;;;;11.50;66.20;;;;;;4995427;28;82143;-39
2023/04/23 08:57:39;;;;;;;;;;;11.50;66.40;;;;;;4997450;28;81991;-39
2023/04/23 09:00:06;;;;;;;;;;;11.50;66.20;;;;;;4996611;28;84574;-39
2023/04/23 09:02:36;;;;;;;;;;;11.60;66.20;;;;;;4994904;28;81880;-39
2023/04/23 09:05:04;;;;;;;;;;;11.60;66.30;;;;;;4994618;28;83999;-39
2023/04/23 09:07:30;;;;;;;;;;;11.60;66.20;;;;;;4997060;28;84579;-39
2023/04/23 09:09:55;;;;;;;;;;;11.60;66.30;;;;;;4998824;28;81629;-39
2023/04/23 09:12:21;;;;;;;;;;;11.60;66.20;;;;;;4995808;28;84474;-39
2023/04/23 09:14:48;;;;;;;;;;;11.60;66.30;;;;;;4996849;28;82101;-39
2023/04/23 09:17:14;;;;;;;;;;;11.70;66.20;;;;;;4993994;28;84664;-39
2023/04/23 09:19:40;;;;;;;;;;;11.60;66.20;;;;;;4997725;28;83021;-39
2023/04/23 09:22:06;;;;;;;;;;;11.70;66.10;;;;;;4995453;28;82501;-39
2023/04/23 09:24:33;;;;;;;;;;;11.70;66.20;;;;;;4996696;28;84001;-39
2023/04/23 09:26:58;;;;;;;;;;;11.70;66.30;;;;;;4996984;28;82993;-39
2023/04/23 09:29:24;;;;;;;;;;;11.70;66.30;;;;;;4995021;28;83200;-39
2023/04/23 09:31:50;;;;;;;;;;;11.70;66.30;;;;;;5000316;28;83842;-39
2023/04/23 09:34:19;;;;;;;;;;;11.70;66.40;;;;;;4994820;28;81157;-39
2023/04/23 09:36:48;;;;;;;;;;;11.70;66.30;;;;;;4996312;28;81857;-39
2023/04/23 09:39:14;;;;;;;;;;;11.70;66.40;;;;;;4996510;28;84545;-39
2023/04/23 09:41:40;;;;;;;;;;;11.70;66.50;;;;;;4993694;28;83022;-39
2023/04/23 09:44:07;;;;;;;;;;;11.80;66.50;;;;;;4997123;28;84952;-39
2023/04/23 09:46:41;;;;;;;;;;;11.80;66.40;;;;;;4994695;28;83666;-39
2023/04/23 09:49:06;;;;;;;;;;;11.80;66.40;;;;;;4995311;28;82095;-39
2023/04/23 09:51:35;;;;;;;;;;;11.80;66.50;;;;;;4997417;28;83768;-39
2023/04/23 09:54:01;;;;;;;;;;;11.80;66.30;;;;;;4996849;28;83384;-39
2023/04/23 09:56:26;;;;;;;;;;;11.90;66.40;;;;;;4996681;28;82231;-39
2023/04/23 09:58:53;;;;;;;;;;;11.90;66.40;;;;;;4996408;28;81622;-39
2023/04/23 10:01:26;;;;;;;;;;;11.90;66.40;;;;;;4995718;28;82828;-39
2023/04/23 10:03:52;;;;;;;;;;;11.90;66.40;;;;;;4997626;28;84101;-39
2023/04/23 10:06:17;;;;;;;;;;;12.00;66.50;;;;;;4993659;28;85385;-39
2023/04/23 10:08:43;;;;;;;;;;;12.00;66.60;;;;;;4995820;27;82097;-39
2023/04/23 10:11:09;;;;;;;;;;;12.00;66.60;;;;;;4995330;28;83922;-39
2023/04/23 10:13:35;;;;;;;;;;;12.10;66.60;;;;;;4997419;28;84747;-40
2023/04/23 10:16:01;;;;;;;;;;;12.10;66.50;;;;;;4996388;28;82924;-39
2023/04/23 10:18:27;;;;;;;;;;;12.10;66.50;;;;;;4993983;28;84548;-39
2023/04/23 10:20:53;;;;;;;;;;;12.10;66.30;;;;;;4996026;28;82039;-39
2023/04/23 10:23:20;;;;;;;;;;;12.10;66.50;;;;;;4995626;28;84063;-39
2023/04/23 10:25:46;;;;;;;;;;;12.10;66.50;;;;;;4994967;28;82901;-39
2023/04/23 10:28:13;;;;;;;;;;;12.20;66.40;;;;;;4996093;28;82179;-40
2023/04/23 10:30:38;;;;;;;;;;;12.20;66.40;;;;;;4992970;28;84246;-39
2023/04/23 10:33:05;;;;;;;;;;;12.20;66.50;;;;;;4993522;28;84660;-39
2023/04/23 10:35:31;;;;;;;;;;;12.20;66.50;;;;;;4998890;28;82147;-39
2023/04/23 10:37:56;;;;;;;;;;;12.10;66.50;;;;;;4994956;28;83469;-39
2023/04/23 10:40:44;;;;;;;;;;;12.20;66.70;;;;;;4993184;28;82187;-39
2023/04/23 10:43:09;;;;;;;;;;;12.30;66.70;;;;;;4995218;28;82429;-39
2023/04/23 10:45:35;;;;;;;;;;;12.30;66.70;;;;;;4994422;28;84376;-39
2023/04/23 10:48:00;;;;;;;;;;;12.30;66.60;;;;;;4996921;28;81660;-40
2023/04/23 10:50:27;;;;;;;;;;;12.30;66.60;;;;;;4993642;28;82277;-39
2023/04/23 10:52:53;;;;;;;;;;;12.30;66.60;;;;;;4995912;28;83526;-39
2023/04/23 10:55:20;;;;;;;;;;;12.40;66.60;;;;;;4993798;28;83049;-40
2023/04/23 10:57:55;;;;;;;;;;;12.30;66.60;;;;;;4997210;28;84754;-39
2023/04/23 11:00:21;;;;;;;;;;;12.40;66.60;;;;;;4996457;28;82178;-39
2023/04/23 11:02:46;;;;;;;;;;;12.40;66.60;;;;;;4993733;28;84296;-39
2023/04/23 11:05:12;;;;;;;;;;;12.40;66.40;;;;;;4995416;28;83191;-39
2023/04/23 11:07:38;;;;;;;;;;;12.40;66.50;;;;;;4994606;28;82129;-39
2023/04/23 11:10:21;;;;;;;;;;;12.50;66.40;;;;;;4993938;28;83914;-39
2023/04/23 11:12:47;;;;;;;;;;;12.50;66.50;;;;;;4994714;28;83751;-39
2023/04/23 11:15:17;;;;;;;;;;;12.50;66.40;;;;;;4993905;28;82092;-39
2023/04/23 11:17:43;;;;;;;;;;;12.60;66.60;;;;;;4996211;28;82919;-39
2023/04/23 11:20:10;;;;;;;;;;;12.60;66.50;;;;;;4994786;28;85725;-39
2023/04/23 11:22:36;;;;;;;;;;;12.60;66.50;;;;;;4995279;28;84882;-39
2023/04/23 11:25:03;;;;;;;;;;;12.60;66.50;;;;;;4994708;28;82984;-39
2023/04/23 11:27:29;;;;;;;;;;;12.60;66.30;;;;;;4993905;28;81844;-39
2023/04/23 11:29:54;;;;;;;;;;;12.60;66.20;;;;;;4995604;28;84151;-39
2023/04/23 11:32:20;;;;;;;;;;;12.60;66.10;;;;;;4994604;28;82931;-39
2023/04/23 11:34:46;;;;;;;;;;;12.70;66.20;;;;;;4999477;28;82349;-39
2023/04/23 11:37:12;;;;;;;;;;;12.70;66.20;;;;;;4997603;28;83918;-39
2023/04/23 11:39:42;;;;;;;;;;;12.70;66.40;;;;;;4997744;28;84414;-39
2023/04/23 11:42:12;;;;;;;;;;;12.70;66.30;;;;;;5001866;28;82033;-39
2023/04/23 11:44:39;;;;;;;;;;;12.70;66.40;;;;;;4995503;28;85194;-39
2023/04/23 11:47:06;;;;;;;;;;;12.70;66.20;;;;;;4998941;28;82784;-39
2023/04/23 11:49:31;;;;;;;;;;;12.80;66.20;;;;;;4997987;28;84046;-39
2023/04/23 11:51:58;;;;;;;;;;;12.80;66.20;;;;;;4997089;28;84400;-39
2023/04/23 11:54:27;;;;;;;;;;;12.80;66.10;;;;;;4999177;28;82109;-39
2023/04/23 11:56:53;;;;;;;;;;;12.80;66.00;;;;;;4996437;28;83800;-39
2023/04/23 11:59:18;;;;;;;;;;;12.80;66.20;;;;;;4998491;28;84523;-39
2023/04/23 12:01:48;;;;;;;;;;;12.80;66.00;;;;;;4997981;28;81666;-39
2023/04/23 12:04:14;;;;;;;;;;;12.90;66.20;;;;;;4999210;28;82269;-39
2023/04/23 12:06:41;;;;;;;;;;;12.90;66.10;;;;;;4999194;28;82221;-39
2023/04/23 12:09:07;;;;;;;;;;;12.90;65.80;;;;;;4995438;28;84162;-39
2023/04/23 12:11:34;;;;;;;;;;;12.90;65.90;;;;;;4998365;28;84671;-39
2023/04/23 12:13:59;;;;;;;;;;;12.90;65.90;;;;;;4997651;28;82340;-40
2023/04/23 12:16:35;;;;;;;;;;;13.00;66.00;;;;;;4996662;28;84001;-40
2023/04/23 12:19:01;;;;;;;;;;;13.00;65.90;;;;;;4995709;28;84034;-39
2023/04/23 12:21:29;;;;;;;;;;;13.00;65.70;;;;;;4998389;28;82062;-39
2023/04/23 12:23:56;;;;;;;;;;;13.00;65.50;;;;;;5000145;28;84228;-39
2023/04/23 12:26:23;;;;;;;;;;;13.00;65.50;;;;;;4996898;28;81860;-39
2023/04/23 12:28:50;;;;;;;;;;;13.00;65.50;;;;;;4998945;28;83282;-39
2023/04/23 12:31:22;;;;;;;;;;;13.00;65.70;;;;;;4995787;28;84549;-39
2023/04/23 12:33:55;;;;;;;;;;;13.10;65.70;;;;;;4996204;28;83127;-39
2023/04/23 12:36:25;;;;;;;;;;;13.10;65.70;;;;;;4998679;28;85149;-39
2023/04/23 12:38:50;;;;;;;;;;;13.10;65.60;;;;;;4995967;28;83313;-39
2023/04/23 12:41:16;;;;;;;;;;;13.20;65.60;;;;;;4997537;28;81946;-39
2023/04/23 12:43:41;;;;;;;;;;;13.20;65.70;;;;;;4996450;28;84016;-39
2023/04/23 12:46:07;;;;;;;;;;;13.20;65.70;;;;;;4998593;28;84073;-39
2023/04/23 12:48:33;;;;;;;;;;;13.20;65.70;;;;;;4996773;28;82209;-39
2023/04/23 12:50:58;;;;;;;;;;;13.30;65.80;;;;;;4995413;28;82710;-39
2023/04/23 12:53:24;;;;;;;;;;;13.30;65.70;;;;;;4998146;28;82396;-39
2023/04/23 12:55:49;;;;;;;;;;;13.30;65.70;;;;;;4996006;28;83832;-39
2023/04/23 12:58:15;;;;;;;;;;;13.30;65.60;;;;;;4996022;28;83143;-39
2023/04/23 13:00:40;;;;;;;;;;;13.30;65.80;;;;;;4997285;28;82020;-39
2023/04/23 13:03:07;;;;;;;;;;;13.40;65.80;;;;;;4995858;28;83348;-40
2023/04/23 13:05:32;;;;;;;;;;;13.40;65.70;;;;;;4998244;28;84417;-39
2023/04/23 13:07:58;;;;;;;;;;;13.40;65.60;;;;;;4996795;28;82048;-39
2023/04/23 13:10:23;;;;;;;;;;;13.40;65.50;;;;;;4997304;28;84653;-39
2023/04/23 13:12:49;;;;;;;;;;;13.50;65.60;;;;;;4996064;28;81907;-39
2023/04/23 13:15:14;;;;;;;;;;;13.50;65.60;;;;;;4995982;28;84114;-39
2023/04/23 13:17:40;;;;;;;;;;;13.50;65.50;;;;;;4997199;28;84354;-39
2023/04/23 13:20:06;;;;;;;;;;;13.60;65.50;;;;;;4994851;28;82134;-39
2023/04/23 13:22:32;;;;;;;;;;;13.60;65.40;;;;;;4993975;28;83921;-39
2023/04/23 13:24:58;;;;;;;;;;;13.70;65.50;;;;;;4997107;28;82960;-39
2023/04/23 13:27:24;;;;;;;;;;;13.70;65.50;;;;;;4995775;28;82108;-39
2023/04/23 13:29:50;;;;;;;;;;;13.70;65.40;;;;;;4998216;28;83872;-39
2023/04/23 13:32:15;;;;;;;;;;;13.80;65.40;;;;;;4997192;28;82391;-39
2023/04/23 13:34:41;;;;;;;;;;;13.90;65.30;;;;;;4994083;28;84063;-39
2023/04/23 13:37:08;;;;;;;;;;;13.90;65.30;;;;;;4994353;28;84047;-39
2023/04/23 13:39:34;;;;;;;;;;;14.00;65.20;;;;;;4997379;28;81769;-39
2023/04/23 13:42:00;;;;;;;;;;;14.00;65.20;;;;;;4995606;28;83390;-39
2023/04/23 13:44:26;;;;;;;;;;;14.00;65.30;;;;;;4994855;28;84381;-39
2023/04/23 13:46:51;;;;;;;;;;;14.10;65.10;;;;;;4996459;28;83047;-39
2023/04/23 13:49:17;;;;;;;;;;;14.10;64.70;;;;;;4993882;28;84951;-39
2023/04/23 13:51:42;;;;;;;;;;;14.20;65.00;;;;;;4996885;28;85060;-40
2023/04/23 13:54:08;;;;;;;;;;;14.20;64.80;;;;;;4997267;28;82415;-39
2023/04/23 13:56:33;;;;;;;;;;;14.20;64.90;;;;;;4993951;28;82968;-39
2023/04/23 13:59:01;;;;;;;;;;;14.20;64.90;;;;;;4995239;28;81939;-39
2023/04/23 14:01:27;;;;;;;;;;;14.20;64.80;;;;;;4996772;28;84026;-39
2023/04/23 14:03:52;;;;;;;;;;;14.20;64.70;;;;;;4994365;28;82827;-39
2023/04/23 14:06:18;;;;;;;;;;;14.30;64.80;;;;;;4993955;28;82038;-39
2023/04/23 14:08:43;;;;;;;;;;;14.30;65.00;;;;;;4996729;28;82751;-39
2023/04/23 14:11:09;;;;;;;;;;;14.30;64.90;;;;;;4993932;28;85451;-39